FlightSource - Aviation Photo Database

World Wide Airport Lookup


Search by ICAO
Or
Search by City

FlightSource.ca - Aviation Photo Database - Guemar Airport Information
Airport Identification
Name: Guemar Airport
ICAO: DAUO
IATA: ELU
Airport Location
City:
Region: 39
Country: Algeria
Continent: Africa
Latitude: 33.5114
Longitude: 6.77679
Airport Information
Type: Medium Airport
Elevation: 203 Feet ASL
Flight Status: DAUO
More Info: DAUO
Airport Weather    
Metar: DAUO 200700Z 11010KT CAVOK 23/15 Q1018
TAF:


Advertisement